Terminal Aerodrome Forecast
Issued by NWS Austin/San Antonio, TX

Home | Current Version | Previous Version | Text Only | Print | Product List | Glossary On
Versions: 1 2 3 4 5 6 7 8 9 10 11 12 13 14 15 16 17
993
FTUS44 KEWX 251142
TAFDRT
TAF
KDRT 251142Z 2512/2612 10008KT P6SM SKC
     FM251500 13010KT P6SM SKC
     FM260000 10007KT P6SM BKN100=

USA.gov is the U.S. government's official web portal to all federal, state and local government web resources and services.